sensor_id;sensor_type;location;lat;lon;timestamp;P1;durP1;ratioP1;P2;durP2;ratioP2
60060;SDS011;45933;51.336;12.612;2022-12-07T00:01:09;14.63;;;9.53;;
60060;SDS011;45933;51.336;12.612;2022-12-07T00:03:39;15.00;;;9.97;;
60060;SDS011;45933;51.336;12.612;2022-12-07T00:06:07;15.60;;;9.93;;
60060;SDS011;45933;51.336;12.612;2022-12-07T00:08:34;17.03;;;10.73;;
60060;SDS011;45933;51.336;12.612;2022-12-07T00:11:04;14.10;;;10.17;;
60060;SDS011;45933;51.336;12.612;2022-12-07T00:13:31;16.57;;;10.20;;
60060;SDS011;45933;51.336;12.612;2022-12-07T00:16:05;14.97;;;9.57;;
60060;SDS011;45933;51.336;12.612;2022-12-07T00:18:32;14.60;;;9.20;;
60060;SDS011;45933;51.336;12.612;2022-12-07T00:21:04;13.17;;;8.97;;
60060;SDS011;45933;51.336;12.612;2022-12-07T00:23:31;13.00;;;9.50;;
60060;SDS011;45933;51.336;12.612;2022-12-07T00:26:04;14.27;;;9.47;;
60060;SDS011;45933;51.336;12.612;2022-12-07T00:28:38;14.70;;;9.57;;
60060;SDS011;45933;51.336;12.612;2022-12-07T00:31:04;13.83;;;9.60;;
60060;SDS011;45933;51.336;12.612;2022-12-07T00:33:37;16.40;;;9.80;;
60060;SDS011;45933;51.336;12.612;2022-12-07T00:36:03;14.60;;;9.90;;
60060;SDS011;45933;51.336;12.612;2022-12-07T00:38:32;16.20;;;9.83;;
60060;SDS011;45933;51.336;12.612;2022-12-07T00:41:03;13.43;;;9.00;;
60060;SDS011;45933;51.336;12.612;2022-12-07T00:43:30;13.63;;;9.07;;
60060;SDS011;45933;51.336;12.612;2022-12-07T00:45:56;15.70;;;9.83;;
60060;SDS011;45933;51.336;12.612;2022-12-07T00:48:22;12.17;;;8.63;;
60060;SDS011;45933;51.336;12.612;2022-12-07T00:50:48;14.90;;;9.67;;
60060;SDS011;45933;51.336;12.612;2022-12-07T00:53:14;14.33;;;9.43;;
60060;SDS011;45933;51.336;12.612;2022-12-07T00:55:40;14.77;;;10.10;;
60060;SDS011;45933;51.336;12.612;2022-12-07T00:58:05;16.07;;;10.40;;
60060;SDS011;45933;51.336;12.612;2022-12-07T01:00:31;14.17;;;9.40;;
60060;SDS011;45933;51.336;12.612;2022-12-07T01:02:56;14.73;;;9.77;;
60060;SDS011;45933;51.336;12.612;2022-12-07T01:05:21;16.03;;;10.10;;
60060;SDS011;45933;51.336;12.612;2022-12-07T01:07:47;16.90;;;10.27;;
60060;SDS011;45933;51.336;12.612;2022-12-07T01:10:15;15.43;;;10.50;;
60060;SDS011;45933;51.336;12.612;2022-12-07T01:12:40;15.70;;;10.17;;
60060;SDS011;45933;51.336;12.612;2022-12-07T01:15:06;16.50;;;10.50;;
60060;SDS011;45933;51.336;12.612;2022-12-07T01:17:33;13.17;;;9.73;;
60060;SDS011;45933;51.336;12.612;2022-12-07T01:19:58;16.87;;;11.53;;
60060;SDS011;45933;51.336;12.612;2022-12-07T01:22:23;13.63;;;10.23;;
60060;SDS011;45933;51.336;12.612;2022-12-07T01:24:49;15.97;;;11.00;;
60060;SDS011;45933;51.336;12.612;2022-12-07T01:27:14;16.07;;;10.90;;
60060;SDS011;45933;51.336;12.612;2022-12-07T01:29:39;16.13;;;11.07;;
60060;SDS011;45933;51.336;12.612;2022-12-07T01:32:05;16.80;;;11.00;;
60060;SDS011;45933;51.336;12.612;2022-12-07T01:34:30;16.73;;;11.03;;
60060;SDS011;45933;51.336;12.612;2022-12-07T01:36:56;16.00;;;10.93;;
60060;SDS011;45933;51.336;12.612;2022-12-07T01:39:22;17.23;;;11.17;;
60060;SDS011;45933;51.336;12.612;2022-12-07T01:41:47;16.30;;;11.47;;
60060;SDS011;45933;51.336;12.612;2022-12-07T01:44:20;18.10;;;11.33;;
60060;SDS011;45933;51.336;12.612;2022-12-07T01:46:54;14.97;;;10.43;;
60060;SDS011;45933;51.336;12.612;2022-12-07T01:49:24;18.80;;;11.67;;
60060;SDS011;45933;51.336;12.612;2022-12-07T01:51:56;15.97;;;10.73;;
60060;SDS011;45933;51.336;12.612;2022-12-07T01:54:35;15.53;;;10.83;;
60060;SDS011;45933;51.336;12.612;2022-12-07T01:57:01;14.63;;;10.33;;
60060;SDS011;45933;51.336;12.612;2022-12-07T01:59:28;15.93;;;10.47;;
60060;SDS011;45933;51.336;12.612;2022-12-07T02:01:54;15.43;;;10.57;;
60060;SDS011;45933;51.336;12.612;2022-12-07T02:04:21;16.13;;;11.30;;
60060;SDS011;45933;51.336;12.612;2022-12-07T02:06:47;14.70;;;10.10;;
60060;SDS011;45933;51.336;12.612;2022-12-07T02:09:12;16.50;;;10.90;;
60060;SDS011;45933;51.336;12.612;2022-12-07T02:11:38;16.33;;;10.43;;
60060;SDS011;45933;51.336;12.612;2022-12-07T02:14:04;15.87;;;10.37;;
60060;SDS011;45933;51.336;12.612;2022-12-07T02:21:51;15.10;;;9.73;;
60060;SDS011;45933;51.336;12.612;2022-12-07T02:27:18;15.13;;;10.40;;
60060;SDS011;45933;51.336;12.612;2022-12-07T02:32:30;16.50;;;9.90;;
60060;SDS011;45933;51.336;12.612;2022-12-07T02:35:11;13.37;;;9.13;;
60060;SDS011;45933;51.336;12.612;2022-12-07T02:37:59;13.87;;;9.40;;
60060;SDS011;45933;51.336;12.612;2022-12-07T02:40:35;16.27;;;10.07;;
60060;SDS011;45933;51.336;12.612;2022-12-07T02:45:54;18.37;;;10.37;;
60060;SDS011;45933;51.336;12.612;2022-12-07T02:48:24;17.23;;;11.03;;
60060;SDS011;45933;51.336;12.612;2022-12-07T02:50:51;15.57;;;9.77;;
60060;SDS011;45933;51.336;12.612;2022-12-07T02:56:05;13.87;;;10.07;;
60060;SDS011;45933;51.336;12.612;2022-12-07T03:04:19;16.90;;;9.87;;
60060;SDS011;45933;51.336;12.612;2022-12-07T03:07:11;13.87;;;9.33;;
60060;SDS011;45933;51.336;12.612;2022-12-07T03:12:29;17.40;;;10.17;;
60060;SDS011;45933;51.336;12.612;2022-12-07T03:15:02;17.87;;;9.03;;
60060;SDS011;45933;51.336;12.612;2022-12-07T03:17:38;15.00;;;9.67;;
60060;SDS011;45933;51.336;12.612;2022-12-07T03:20:07;13.30;;;8.93;;
60060;SDS011;45933;51.336;12.612;2022-12-07T03:22:36;13.80;;;9.37;;
60060;SDS011;45933;51.336;12.612;2022-12-07T03:25:06;14.03;;;8.80;;
60060;SDS011;45933;51.336;12.612;2022-12-07T03:27:47;16.47;;;9.00;;
60060;SDS011;45933;51.336;12.612;2022-12-07T03:30:22;12.37;;;8.50;;
60060;SDS011;45933;51.336;12.612;2022-12-07T03:32:50;14.13;;;9.33;;
60060;SDS011;45933;51.336;12.612;2022-12-07T03:38:17;12.23;;;8.27;;
60060;SDS011;45933;51.336;12.612;2022-12-07T03:40:51;12.83;;;8.10;;
60060;SDS011;45933;51.336;12.612;2022-12-07T03:43:24;12.37;;;7.73;;
60060;SDS011;45933;51.336;12.612;2022-12-07T03:45:54;13.50;;;8.93;;
60060;SDS011;45933;51.336;12.612;2022-12-07T03:48:32;14.00;;;9.30;;
60060;SDS011;45933;51.336;12.612;2022-12-07T03:51:07;13.27;;;8.73;;
60060;SDS011;45933;51.336;12.612;2022-12-07T03:53:46;15.47;;;8.73;;
60060;SDS011;45933;51.336;12.612;2022-12-07T03:56:17;12.60;;;8.03;;
60060;SDS011;45933;51.336;12.612;2022-12-07T03:58:44;11.93;;;7.73;;
60060;SDS011;45933;51.336;12.612;2022-12-07T04:01:09;11.30;;;7.80;;
60060;SDS011;45933;51.336;12.612;2022-12-07T04:03:34;11.87;;;7.90;;
60060;SDS011;45933;51.336;12.612;2022-12-07T04:06:00;14.03;;;8.67;;
60060;SDS011;45933;51.336;12.612;2022-12-07T04:08:26;14.60;;;8.10;;
60060;SDS011;45933;51.336;12.612;2022-12-07T04:10:51;11.27;;;7.80;;
60060;SDS011;45933;51.336;12.612;2022-12-07T04:13:16;12.57;;;7.93;;
60060;SDS011;45933;51.336;12.612;2022-12-07T04:15:42;11.73;;;8.27;;
60060;SDS011;45933;51.336;12.612;2022-12-07T04:18:07;12.10;;;8.10;;
60060;SDS011;45933;51.336;12.612;2022-12-07T04:20:32;11.80;;;7.73;;
60060;SDS011;45933;51.336;12.612;2022-12-07T04:22:58;11.40;;;7.87;;
60060;SDS011;45933;51.336;12.612;2022-12-07T04:25:23;13.20;;;8.07;;
60060;SDS011;45933;51.336;12.612;2022-12-07T04:27:48;11.03;;;8.10;;
60060;SDS011;45933;51.336;12.612;2022-12-07T04:30:13;11.90;;;7.83;;
60060;SDS011;45933;51.336;12.612;2022-12-07T04:32:39;13.00;;;8.20;;
60060;SDS011;45933;51.336;12.612;2022-12-07T04:35:04;11.93;;;8.37;;
60060;SDS011;45933;51.336;12.612;2022-12-07T04:37:30;12.33;;;8.60;;
60060;SDS011;45933;51.336;12.612;2022-12-07T04:39:55;12.33;;;7.67;;
60060;SDS011;45933;51.336;12.612;2022-12-07T04:42:21;13.10;;;8.23;;
60060;SDS011;45933;51.336;12.612;2022-12-07T04:44:46;11.47;;;7.73;;
60060;SDS011;45933;51.336;12.612;2022-12-07T04:47:11;12.83;;;7.77;;
60060;SDS011;45933;51.336;12.612;2022-12-07T04:49:36;12.73;;;7.57;;
60060;SDS011;45933;51.336;12.612;2022-12-07T04:52:02;12.23;;;8.23;;
60060;SDS011;45933;51.336;12.612;2022-12-07T04:54:27;12.10;;;8.33;;
60060;SDS011;45933;51.336;12.612;2022-12-07T04:56:53;12.63;;;8.20;;
60060;SDS011;45933;51.336;12.612;2022-12-07T04:59:18;11.63;;;7.57;;
60060;SDS011;45933;51.336;12.612;2022-12-07T05:01:43;12.03;;;7.63;;
60060;SDS011;45933;51.336;12.612;2022-12-07T05:04:09;11.33;;;7.83;;
60060;SDS011;45933;51.336;12.612;2022-12-07T05:06:34;11.87;;;7.60;;
60060;SDS011;45933;51.336;12.612;2022-12-07T05:09:01;10.60;;;7.37;;
60060;SDS011;45933;51.336;12.612;2022-12-07T05:11:27;12.73;;;8.60;;
60060;SDS011;45933;51.336;12.612;2022-12-07T05:14:14;11.77;;;8.47;;
60060;SDS011;45933;51.336;12.612;2022-12-07T05:16:41;12.90;;;9.30;;
60060;SDS011;45933;51.336;12.612;2022-12-07T05:19:08;12.17;;;8.03;;
60060;SDS011;45933;51.336;12.612;2022-12-07T05:21:34;13.87;;;9.37;;
60060;SDS011;45933;51.336;12.612;2022-12-07T05:24:00;16.47;;;11.43;;
60060;SDS011;45933;51.336;12.612;2022-12-07T05:26:26;12.80;;;10.57;;
60060;SDS011;45933;51.336;12.612;2022-12-07T05:28:52;14.07;;;8.57;;
60060;SDS011;45933;51.336;12.612;2022-12-07T05:31:19;10.33;;;7.53;;
60060;SDS011;45933;51.336;12.612;2022-12-07T05:33:44;12.70;;;9.53;;
60060;SDS011;45933;51.336;12.612;2022-12-07T05:36:10;14.20;;;8.90;;
60060;SDS011;45933;51.336;12.612;2022-12-07T05:38:35;13.87;;;9.97;;
60060;SDS011;45933;51.336;12.612;2022-12-07T05:41:04;14.70;;;10.73;;
60060;SDS011;45933;51.336;12.612;2022-12-07T05:43:30;13.30;;;9.13;;
60060;SDS011;45933;51.336;12.612;2022-12-07T05:45:57;36.13;;;24.93;;
60060;SDS011;45933;51.336;12.612;2022-12-07T05:48:22;25.40;;;18.73;;
60060;SDS011;45933;51.336;12.612;2022-12-07T05:50:48;21.40;;;15.97;;
60060;SDS011;45933;51.336;12.612;2022-12-07T05:53:14;18.00;;;13.00;;
60060;SDS011;45933;51.336;12.612;2022-12-07T05:55:40;16.80;;;11.70;;
60060;SDS011;45933;51.336;12.612;2022-12-07T05:58:05;14.37;;;9.63;;
60060;SDS011;45933;51.336;12.612;2022-12-07T06:00:49;15.33;;;10.10;;
60060;SDS011;45933;51.336;12.612;2022-12-07T06:03:14;14.17;;;9.70;;
60060;SDS011;45933;51.336;12.612;2022-12-07T06:05:40;12.10;;;8.90;;
60060;SDS011;45933;51.336;12.612;2022-12-07T06:08:05;14.20;;;9.57;;
60060;SDS011;45933;51.336;12.612;2022-12-07T06:10:30;14.67;;;9.57;;
60060;SDS011;45933;51.336;12.612;2022-12-07T06:12:56;14.37;;;10.03;;
60060;SDS011;45933;51.336;12.612;2022-12-07T06:15:21;12.83;;;8.97;;
60060;SDS011;45933;51.336;12.612;2022-12-07T06:17:48;13.97;;;9.60;;
60060;SDS011;45933;51.336;12.612;2022-12-07T06:20:13;15.33;;;10.90;;
60060;SDS011;45933;51.336;12.612;2022-12-07T06:22:38;14.07;;;10.20;;
60060;SDS011;45933;51.336;12.612;2022-12-07T06:25:04;14.80;;;10.67;;
60060;SDS011;45933;51.336;12.612;2022-12-07T06:27:29;14.47;;;10.63;;
60060;SDS011;45933;51.336;12.612;2022-12-07T06:29:55;15.63;;;11.20;;
60060;SDS011;45933;51.336;12.612;2022-12-07T06:32:20;15.47;;;11.27;;
60060;SDS011;45933;51.336;12.612;2022-12-07T06:34:45;14.80;;;10.70;;
60060;SDS011;45933;51.336;12.612;2022-12-07T06:37:12;19.13;;;13.50;;
60060;SDS011;45933;51.336;12.612;2022-12-07T06:39:37;20.37;;;13.67;;
60060;SDS011;45933;51.336;12.612;2022-12-07T06:42:03;21.63;;;15.07;;
60060;SDS011;45933;51.336;12.612;2022-12-07T06:44:29;19.03;;;12.60;;
60060;SDS011;45933;51.336;12.612;2022-12-07T06:46:55;31.77;;;21.33;;
60060;SDS011;45933;51.336;12.612;2022-12-07T06:49:21;41.90;;;26.30;;
60060;SDS011;45933;51.336;12.612;2022-12-07T06:51:46;44.60;;;26.53;;
60060;SDS011;45933;51.336;12.612;2022-12-07T06:54:12;48.50;;;30.03;;
60060;SDS011;45933;51.336;12.612;2022-12-07T06:56:39;30.23;;;19.77;;
60060;SDS011;45933;51.336;12.612;2022-12-07T06:59:05;22.67;;;15.67;;
60060;SDS011;45933;51.336;12.612;2022-12-07T07:01:32;19.10;;;13.67;;
60060;SDS011;45933;51.336;12.612;2022-12-07T07:03:58;18.90;;;12.83;;
60060;SDS011;45933;51.336;12.612;2022-12-07T07:06:24;18.83;;;13.33;;
60060;SDS011;45933;51.336;12.612;2022-12-07T07:08:49;18.77;;;12.50;;
60060;SDS011;45933;51.336;12.612;2022-12-07T07:11:15;16.63;;;11.70;;
60060;SDS011;45933;51.336;12.612;2022-12-07T07:13:40;18.63;;;12.60;;
60060;SDS011;45933;51.336;12.612;2022-12-07T07:16:06;21.63;;;13.60;;
60060;SDS011;45933;51.336;12.612;2022-12-07T07:18:32;18.57;;;13.50;;
60060;SDS011;45933;51.336;12.612;2022-12-07T07:20:57;19.03;;;13.07;;
60060;SDS011;45933;51.336;12.612;2022-12-07T07:23:23;20.10;;;13.47;;
60060;SDS011;45933;51.336;12.612;2022-12-07T07:25:48;25.03;;;16.73;;
60060;SDS011;45933;51.336;12.612;2022-12-07T07:28:14;22.00;;;16.30;;
60060;SDS011;45933;51.336;12.612;2022-12-07T07:30:40;21.17;;;14.87;;
60060;SDS011;45933;51.336;12.612;2022-12-07T07:33:05;21.77;;;15.87;;
60060;SDS011;45933;51.336;12.612;2022-12-07T07:35:32;20.33;;;13.33;;
60060;SDS011;45933;51.336;12.612;2022-12-07T07:37:58;18.97;;;13.57;;
60060;SDS011;45933;51.336;12.612;2022-12-07T07:40:24;17.87;;;12.90;;
60060;SDS011;45933;51.336;12.612;2022-12-07T07:42:50;19.03;;;13.50;;
60060;SDS011;45933;51.336;12.612;2022-12-07T07:45:17;19.67;;;13.53;;
60060;SDS011;45933;51.336;12.612;2022-12-07T07:47:44;17.17;;;12.00;;
60060;SDS011;45933;51.336;12.612;2022-12-07T07:50:09;16.30;;;12.10;;
60060;SDS011;45933;51.336;12.612;2022-12-07T07:52:35;18.23;;;13.00;;
60060;SDS011;45933;51.336;12.612;2022-12-07T07:55:00;19.77;;;14.27;;
60060;SDS011;45933;51.336;12.612;2022-12-07T07:57:26;16.27;;;12.10;;
60060;SDS011;45933;51.336;12.612;2022-12-07T07:59:52;18.20;;;12.23;;
60060;SDS011;45933;51.336;12.612;2022-12-07T08:02:18;19.67;;;13.00;;
60060;SDS011;45933;51.336;12.612;2022-12-07T08:04:44;18.80;;;13.30;;
60060;SDS011;45933;51.336;12.612;2022-12-07T08:07:10;20.30;;;11.47;;
60060;SDS011;45933;51.336;12.612;2022-12-07T08:09:36;19.43;;;12.73;;
60060;SDS011;45933;51.336;12.612;2022-12-07T08:12:01;20.50;;;14.77;;
60060;SDS011;45933;51.336;12.612;2022-12-07T08:14:26;23.80;;;14.67;;
60060;SDS011;45933;51.336;12.612;2022-12-07T08:16:53;18.13;;;12.83;;
60060;SDS011;45933;51.336;12.612;2022-12-07T08:19:19;19.57;;;13.10;;
60060;SDS011;45933;51.336;12.612;2022-12-07T08:21:44;18.63;;;12.53;;
60060;SDS011;45933;51.336;12.612;2022-12-07T08:24:09;17.80;;;12.53;;
60060;SDS011;45933;51.336;12.612;2022-12-07T08:26:35;17.90;;;12.17;;
60060;SDS011;45933;51.336;12.612;2022-12-07T08:29:00;16.10;;;12.10;;
60060;SDS011;45933;51.336;12.612;2022-12-07T08:31:25;15.50;;;11.63;;
60060;SDS011;45933;51.336;12.612;2022-12-07T08:33:52;15.73;;;11.47;;
60060;SDS011;45933;51.336;12.612;2022-12-07T08:36:18;16.53;;;11.57;;
60060;SDS011;45933;51.336;12.612;2022-12-07T08:38:43;17.40;;;11.80;;
60060;SDS011;45933;51.336;12.612;2022-12-07T08:41:09;17.67;;;10.60;;
60060;SDS011;45933;51.336;12.612;2022-12-07T08:43:35;19.07;;;11.37;;
60060;SDS011;45933;51.336;12.612;2022-12-07T08:46:17;22.40;;;15.27;;
60060;SDS011;45933;51.336;12.612;2022-12-07T08:51:14;22.87;;;15.30;;
60060;SDS011;45933;51.336;12.612;2022-12-07T08:53:40;22.67;;;14.50;;
60060;SDS011;45933;51.336;12.612;2022-12-07T08:56:06;15.70;;;11.37;;
60060;SDS011;45933;51.336;12.612;2022-12-07T08:58:33;21.33;;;11.93;;
60060;SDS011;45933;51.336;12.612;2022-12-07T09:00:59;19.63;;;11.77;;
60060;SDS011;45933;51.336;12.612;2022-12-07T09:03:25;15.57;;;10.37;;
60060;SDS011;45933;51.336;12.612;2022-12-07T09:05:50;15.17;;;10.60;;
60060;SDS011;45933;51.336;12.612;2022-12-07T09:08:16;14.13;;;9.83;;
60060;SDS011;45933;51.336;12.612;2022-12-07T09:10:42;13.03;;;8.67;;
60060;SDS011;45933;51.336;12.612;2022-12-07T09:13:07;13.73;;;9.43;;
60060;SDS011;45933;51.336;12.612;2022-12-07T09:15:33;13.97;;;10.00;;
60060;SDS011;45933;51.336;12.612;2022-12-07T09:17:58;14.47;;;9.33;;
60060;SDS011;45933;51.336;12.612;2022-12-07T09:20:23;13.57;;;9.60;;
60060;SDS011;45933;51.336;12.612;2022-12-07T09:22:49;15.67;;;9.87;;
60060;SDS011;45933;51.336;12.612;2022-12-07T09:25:14;13.60;;;9.17;;
60060;SDS011;45933;51.336;12.612;2022-12-07T09:27:39;13.60;;;9.23;;
60060;SDS011;45933;51.336;12.612;2022-12-07T09:30:05;13.80;;;8.80;;
60060;SDS011;45933;51.336;12.612;2022-12-07T09:32:32;13.27;;;8.97;;
60060;SDS011;45933;51.336;12.612;2022-12-07T09:34:57;14.63;;;8.67;;
60060;SDS011;45933;51.336;12.612;2022-12-07T09:37:22;17.60;;;9.30;;
60060;SDS011;45933;51.336;12.612;2022-12-07T09:39:48;14.13;;;9.23;;
60060;SDS011;45933;51.336;12.612;2022-12-07T09:45:21;15.97;;;9.43;;
60060;SDS011;45933;51.336;12.612;2022-12-07T09:48:00;13.83;;;8.73;;
60060;SDS011;45933;51.336;12.612;2022-12-07T09:50:28;15.20;;;9.27;;
60060;SDS011;45933;51.336;12.612;2022-12-07T09:52:55;14.47;;;9.30;;
60060;SDS011;45933;51.336;12.612;2022-12-07T09:55:47;14.37;;;8.73;;
60060;SDS011;45933;51.336;12.612;2022-12-07T09:58:21;13.97;;;8.23;;
60060;SDS011;45933;51.336;12.612;2022-12-07T10:00:50;15.27;;;8.90;;
60060;SDS011;45933;51.336;12.612;2022-12-07T10:03:18;13.10;;;8.67;;
60060;SDS011;45933;51.336;12.612;2022-12-07T10:05:47;13.97;;;8.90;;
60060;SDS011;45933;51.336;12.612;2022-12-07T10:08:15;18.27;;;9.57;;
60060;SDS011;45933;51.336;12.612;2022-12-07T10:10:42;16.30;;;9.67;;
60060;SDS011;45933;51.336;12.612;2022-12-07T10:13:11;15.03;;;10.00;;
60060;SDS011;45933;51.336;12.612;2022-12-07T10:20:50;13.70;;;8.60;;
60060;SDS011;45933;51.336;12.612;2022-12-07T10:23:26;16.23;;;10.77;;
60060;SDS011;45933;51.336;12.612;2022-12-07T10:25:51;16.40;;;11.47;;
60060;SDS011;45933;51.336;12.612;2022-12-07T10:28:19;51.70;;;30.83;;
60060;SDS011;45933;51.336;12.612;2022-12-07T10:30:59;67.90;;;42.00;;
60060;SDS011;45933;51.336;12.612;2022-12-07T10:36:19;20.37;;;12.97;;
60060;SDS011;45933;51.336;12.612;2022-12-07T10:38:47;16.20;;;11.67;;
60060;SDS011;45933;51.336;12.612;2022-12-07T10:41:15;17.20;;;11.33;;
60060;SDS011;45933;51.336;12.612;2022-12-07T10:43:48;16.70;;;11.07;;
60060;SDS011;45933;51.336;12.612;2022-12-07T10:46:26;14.53;;;9.90;;
60060;SDS011;45933;51.336;12.612;2022-12-07T11:00:29;14.50;;;8.33;;
60060;SDS011;45933;51.336;12.612;2022-12-07T11:08:45;11.23;;;6.83;;
60060;SDS011;45933;51.336;12.612;2022-12-07T11:11:40;12.40;;;6.30;;
60060;SDS011;45933;51.336;12.612;2022-12-07T11:16:49;9.93;;;6.17;;
60060;SDS011;45933;51.336;12.612;2022-12-07T11:19:33;13.37;;;7.03;;
60060;SDS011;45933;51.336;12.612;2022-12-07T11:22:13;11.17;;;6.90;;
60060;SDS011;45933;51.336;12.612;2022-12-07T11:24:53;12.43;;;6.43;;
60060;SDS011;45933;51.336;12.612;2022-12-07T11:27:37;11.83;;;6.13;;
60060;SDS011;45933;51.336;12.612;2022-12-07T11:30:13;7.70;;;5.90;;
60060;SDS011;45933;51.336;12.612;2022-12-07T11:33:19;11.23;;;6.00;;
60060;SDS011;45933;51.336;12.612;2022-12-07T11:35:51;8.97;;;4.73;;
60060;SDS011;45933;51.336;12.612;2022-12-07T11:38:29;5.40;;;3.73;;
60060;SDS011;45933;51.336;12.612;2022-12-07T11:41:08;7.27;;;3.30;;
60060;SDS011;45933;51.336;12.612;2022-12-07T11:46:37;5.67;;;2.97;;
60060;SDS011;45933;51.336;12.612;2022-12-07T11:55:27;6.23;;;4.40;;
60060;SDS011;45933;51.336;12.612;2022-12-07T11:58:19;7.17;;;4.60;;
60060;SDS011;45933;51.336;12.612;2022-12-07T12:03:45;9.03;;;4.13;;
60060;SDS011;45933;51.336;12.612;2022-12-07T12:06:13;6.30;;;4.97;;
60060;SDS011;45933;51.336;12.612;2022-12-07T12:08:40;7.40;;;5.37;;
60060;SDS011;45933;51.336;12.612;2022-12-07T12:11:19;7.00;;;5.73;;
60060;SDS011;45933;51.336;12.612;2022-12-07T12:14:00;11.50;;;6.03;;
60060;SDS011;45933;51.336;12.612;2022-12-07T12:19:18;10.67;;;6.00;;
60060;SDS011;45933;51.336;12.612;2022-12-07T12:21:47;8.60;;;5.83;;
60060;SDS011;45933;51.336;12.612;2022-12-07T12:24:19;10.57;;;6.07;;
60060;SDS011;45933;51.336;12.612;2022-12-07T12:26:51;10.37;;;5.77;;
60060;SDS011;45933;51.336;12.612;2022-12-07T12:29:23;10.00;;;6.13;;
60060;SDS011;45933;51.336;12.612;2022-12-07T12:32:06;9.63;;;5.17;;
60060;SDS011;45933;51.336;12.612;2022-12-07T12:40:24;9.13;;;5.73;;
60060;SDS011;45933;51.336;12.612;2022-12-07T12:42:57;7.57;;;5.50;;
60060;SDS011;45933;51.336;12.612;2022-12-07T12:50:33;7.57;;;5.33;;
60060;SDS011;45933;51.336;12.612;2022-12-07T13:00:44;8.93;;;4.40;;
60060;SDS011;45933;51.336;12.612;2022-12-07T13:03:27;6.27;;;4.27;;
60060;SDS011;45933;51.336;12.612;2022-12-07T13:08:53;8.40;;;3.50;;
60060;SDS011;45933;51.336;12.612;2022-12-07T13:17:00;8.37;;;3.13;;
60060;SDS011;45933;51.336;12.612;2022-12-07T13:25:58;7.43;;;3.43;;
60060;SDS011;45933;51.336;12.612;2022-12-07T13:31:03;7.23;;;3.30;;
60060;SDS011;45933;51.336;12.612;2022-12-07T13:33:38;5.13;;;2.67;;
60060;SDS011;45933;51.336;12.612;2022-12-07T13:36:04;4.27;;;2.30;;
60060;SDS011;45933;51.336;12.612;2022-12-07T13:38:48;6.63;;;2.27;;
60060;SDS011;45933;51.336;12.612;2022-12-07T13:41:16;5.83;;;2.40;;
60060;SDS011;45933;51.336;12.612;2022-12-07T13:43:51;6.53;;;2.60;;
60060;SDS011;45933;51.336;12.612;2022-12-07T13:46:31;5.60;;;2.30;;
60060;SDS011;45933;51.336;12.612;2022-12-07T13:52:13;4.60;;;2.40;;
60060;SDS011;45933;51.336;12.612;2022-12-07T13:54:45;5.57;;;2.50;;
60060;SDS011;45933;51.336;12.612;2022-12-07T13:57:15;3.97;;;2.37;;
60060;SDS011;45933;51.336;12.612;2022-12-07T13:59:42;4.80;;;2.30;;
60060;SDS011;45933;51.336;12.612;2022-12-07T14:04:49;4.97;;;2.70;;
60060;SDS011;45933;51.336;12.612;2022-12-07T14:10:03;5.77;;;2.43;;
60060;SDS011;45933;51.336;12.612;2022-12-07T14:12:31;4.10;;;2.30;;
60060;SDS011;45933;51.336;12.612;2022-12-07T14:15:00;4.63;;;2.20;;
60060;SDS011;45933;51.336;12.612;2022-12-07T14:17:27;5.57;;;2.23;;
60060;SDS011;45933;51.336;12.612;2022-12-07T14:19:56;4.77;;;2.30;;
60060;SDS011;45933;51.336;12.612;2022-12-07T14:24:57;3.70;;;2.17;;
60060;SDS011;45933;51.336;12.612;2022-12-07T14:27:24;7.20;;;2.50;;
60060;SDS011;45933;51.336;12.612;2022-12-07T14:29:55;5.20;;;2.20;;
60060;SDS011;45933;51.336;12.612;2022-12-07T14:32:22;4.73;;;2.30;;
60060;SDS011;45933;51.336;12.612;2022-12-07T14:34:53;4.80;;;2.13;;
60060;SDS011;45933;51.336;12.612;2022-12-07T14:37:36;6.30;;;2.20;;
60060;SDS011;45933;51.336;12.612;2022-12-07T14:40:03;5.63;;;2.17;;
60060;SDS011;45933;51.336;12.612;2022-12-07T14:42:29;4.77;;;2.30;;
60060;SDS011;45933;51.336;12.612;2022-12-07T14:44:56;5.43;;;2.00;;
60060;SDS011;45933;51.336;12.612;2022-12-07T14:47:22;3.20;;;2.23;;
60060;SDS011;45933;51.336;12.612;2022-12-07T14:49:48;6.47;;;2.37;;
60060;SDS011;45933;51.336;12.612;2022-12-07T14:52:24;3.73;;;2.13;;
60060;SDS011;45933;51.336;12.612;2022-12-07T14:54:53;5.13;;;2.43;;
60060;SDS011;45933;51.336;12.612;2022-12-07T14:57:19;6.30;;;3.00;;
60060;SDS011;45933;51.336;12.612;2022-12-07T14:59:44;6.33;;;2.83;;
60060;SDS011;45933;51.336;12.612;2022-12-07T15:02:13;5.57;;;2.43;;
60060;SDS011;45933;51.336;12.612;2022-12-07T15:04:39;4.30;;;2.20;;
60060;SDS011;45933;51.336;12.612;2022-12-07T15:07:08;6.20;;;2.30;;
60060;SDS011;45933;51.336;12.612;2022-12-07T15:09:37;5.20;;;2.20;;
60060;SDS011;45933;51.336;12.612;2022-12-07T15:12:03;4.87;;;2.20;;
60060;SDS011;45933;51.336;12.612;2022-12-07T15:14:28;5.67;;;2.10;;
60060;SDS011;45933;51.336;12.612;2022-12-07T15:16:54;3.40;;;2.10;;
60060;SDS011;45933;51.336;12.612;2022-12-07T15:19:20;4.30;;;2.00;;
60060;SDS011;45933;51.336;12.612;2022-12-07T15:21:51;5.67;;;2.33;;
60060;SDS011;45933;51.336;12.612;2022-12-07T15:24:17;5.00;;;2.33;;
60060;SDS011;45933;51.336;12.612;2022-12-07T15:26:42;5.10;;;2.57;;
60060;SDS011;45933;51.336;12.612;2022-12-07T15:29:08;6.60;;;2.83;;
60060;SDS011;45933;51.336;12.612;2022-12-07T15:31:34;5.27;;;2.23;;
60060;SDS011;45933;51.336;12.612;2022-12-07T15:34:00;4.40;;;2.20;;
60060;SDS011;45933;51.336;12.612;2022-12-07T15:36:27;6.73;;;2.13;;
60060;SDS011;45933;51.336;12.612;2022-12-07T15:38:53;4.70;;;2.20;;
60060;SDS011;45933;51.336;12.612;2022-12-07T15:41:20;6.47;;;2.77;;
60060;SDS011;45933;51.336;12.612;2022-12-07T15:43:45;11.23;;;5.00;;
60060;SDS011;45933;51.336;12.612;2022-12-07T15:46:34;8.40;;;3.43;;
60060;SDS011;45933;51.336;12.612;2022-12-07T15:49:02;8.90;;;3.43;;
60060;SDS011;45933;51.336;12.612;2022-12-07T15:51:28;15.03;;;4.77;;
60060;SDS011;45933;51.336;12.612;2022-12-07T15:53:53;11.53;;;4.10;;
60060;SDS011;45933;51.336;12.612;2022-12-07T15:56:19;7.43;;;2.83;;
60060;SDS011;45933;51.336;12.612;2022-12-07T15:58:45;7.97;;;2.37;;
60060;SDS011;45933;51.336;12.612;2022-12-07T16:01:13;5.13;;;2.10;;
60060;SDS011;45933;51.336;12.612;2022-12-07T16:03:41;9.10;;;3.33;;
60060;SDS011;45933;51.336;12.612;2022-12-07T16:06:07;7.30;;;2.73;;
60060;SDS011;45933;51.336;12.612;2022-12-07T16:08:32;6.13;;;3.07;;
60060;SDS011;45933;51.336;12.612;2022-12-07T16:10:58;6.87;;;2.53;;
60060;SDS011;45933;51.336;12.612;2022-12-07T16:13:23;5.90;;;2.70;;
60060;SDS011;45933;51.336;12.612;2022-12-07T16:15:48;3.13;;;2.00;;
60060;SDS011;45933;51.336;12.612;2022-12-07T16:18:14;3.93;;;2.30;;
60060;SDS011;45933;51.336;12.612;2022-12-07T16:20:39;6.90;;;2.33;;
60060;SDS011;45933;51.336;12.612;2022-12-07T16:23:05;9.63;;;2.67;;
60060;SDS011;45933;51.336;12.612;2022-12-07T16:25:30;7.63;;;2.97;;
60060;SDS011;45933;51.336;12.612;2022-12-07T16:27:56;6.70;;;3.23;;
60060;SDS011;45933;51.336;12.612;2022-12-07T16:30:21;8.63;;;2.93;;
60060;SDS011;45933;51.336;12.612;2022-12-07T16:32:46;6.67;;;3.57;;